Kaisei Maru — JD3114 — position and weather

sailwx.info

Track history (hours):
 
Tides and Currents Weather Stations Pressure Air Temp Water Temp Dewpoint Dewpoint Depression Visibility Wind Speed Wind Dir Waves Ship Positions

Kaisei Maru

Last reported at 2016-May-29 03:33 UTC. Time now 2016-May-29 03:52 UTC.
Position N 34°41' E 135°12'.

Length 52 m; draft 3.8 m.

Type: Tanker. MMSI: 431001837.

Date/timePositionNaut miles runAvg speedWind from/ knotsBaromVisibWave heightAir tempDewpointWater temp
2016-May-29 03:33N 34°41' E 135°12'0 0.0
2016-May-29 02:33N 34°41' E 135°12'0 0.0
2016-May-29 01:33N 34°41' E 135°12'0 0.0
2016-May-29 00:33N 34°41' E 135°12'0 0.0
2016-May-28 23:33N 34°41' E 135°12'0 0.0
2016-May-28 22:33N 34°41' E 135°12'0 0.0
2016-May-28 21:33N 34°41' E 135°12'0 0.0
2016-May-28 20:33N 34°41' E 135°12'0 0.0
2016-May-28 19:33N 34°41' E 135°12'0 0.0
2016-May-28 18:33N 34°41' E 135°12'0 0.0
2016-May-28 17:33N 34°41' E 135°12'0 0.0
2016-May-28 16:33N 34°41' E 135°12'0 0.0
2016-May-28 15:33N 34°41' E 135°12'0 0.0
2016-May-28 14:33N 34°41' E 135°12'0 0.0
2016-May-28 13:33N 34°41' E 135°12'0 0.0
2016-May-28 12:33N 34°41' E 135°12'0 0.0
2016-May-28 11:33N 34°41' E 135°12'0 0.0
2016-May-28 10:33N 34°41' E 135°12'0 0.0
2016-May-28 09:33N 34°41' E 135°12'0 0.0
2016-May-28 08:33N 34°41' E 135°12'4 3.8
2016-May-28 07:33N 34°39' E 135°16'1010.4
2016-May-28 06:33N 34°29' E 135°20'3 3.2
2016-May-28 05:32N 34°26' E 135°19'0 0.1
2016-May-28 03:16N 34°26' E 135°19'1 1.3
2016-May-28 02:33N 34°27' E 135°19'0 0.0
2016-May-28 01:33N 34°27' E 135°19'0 0.0
2016-May-28 00:31N 34°27' E 135°19'7 7.5
2016-May-27 23:33N 34°34' E 135°17'8 8.2
2016-May-27 22:33N 34°41' E 135°13'0 0.4
2016-May-27 21:33N 34°41' E 135°12'0 0.0
2016-May-27 20:33N 34°41' E 135°12'0 0.0
2016-May-27 19:33N 34°41' E 135°12'0 0.0
2016-May-27 18:33N 34°41' E 135°12'0 0.0
2016-May-27 17:33N 34°41' E 135°12'0 0.0
2016-May-27 16:33N 34°41' E 135°12'0 0.0
2016-May-27 15:33N 34°41' E 135°12'0 0.0
2016-May-27 14:33N 34°41' E 135°12'0 0.0
2016-May-27 13:33N 34°41' E 135°12'0 0.0
2016-May-27 12:33N 34°41' E 135°12'0 0.0
2016-May-27 11:33N 34°41' E 135°12'0 0.0
2016-May-27 10:33N 34°41' E 135°12'0 0.0
2016-May-27 09:33N 34°41' E 135°12'0 0.0
2016-May-27 08:33N 34°41' E 135°12'0 0.0
2016-May-27 07:33N 34°41' E 135°12'9 8.7
2016-May-27 06:33N 34°34' E 135°18'8 3.1
2016-May-27 04:03N 34°26' E 135°19'4 6.3
2016-May-27 03:27N 34°30' E 135°18'910.2
2016-May-27 02:33N 34°38' E 135°16'4 4.2
2016-May-27 01:33N 34°41' E 135°12'0 0.0
2016-May-27 00:33N 34°41' E 135°12'0 0.0
2016-May-26 23:33N 34°41' E 135°12'0 0.0
2016-May-26 22:33N 34°41' E 135°12'0 0.0
2016-May-26 21:33N 34°41' E 135°12'0 0.0
2016-May-26 20:33N 34°41' E 135°12'0 0.0
2016-May-26 19:33N 34°41' E 135°12'0 0.0
2016-May-26 18:33N 34°41' E 135°12'0 0.0
2016-May-26 17:33N 34°41' E 135°12'0 0.0
2016-May-26 16:33N 34°41' E 135°12'0 0.0
2016-May-26 15:33N 34°41' E 135°12'0 0.0
2016-May-26 14:33N 34°41' E 135°12'0 0.0
2016-May-26 13:33N 34°41' E 135°12'0 0.0
2016-May-26 12:33N 34°41' E 135°12'0 0.0
2016-May-26 11:33N 34°41' E 135°12'0 0.0
2016-May-26 10:33N 34°41' E 135°12'0 0.0
2016-May-26 09:33N 34°41' E 135°12'0 0.0
2016-May-26 08:33N 34°41' E 135°12'0 0.0
2016-May-26 07:33N 34°41' E 135°12'0 0.0
2016-May-26 06:33N 34°41' E 135°12'0 0.0
2016-May-26 05:33N 34°41' E 135°12'0 0.0
2016-May-26 04:33N 34°41' E 135°12'0 0.0
2016-May-26 03:33N 34°41' E 135°12'0 0.0
2016-May-26 02:33N 34°41' E 135°12'0 0.0
2016-May-26 01:33N 34°41' E 135°12'0 0.0
2016-May-26 00:33N 34°41' E 135°12'0 0.0
2016-May-25 23:33N 34°41' E 135°12'0 0.0
2016-May-25 22:33N 34°41' E 135°12'0 0.0
2016-May-25 21:33N 34°41' E 135°12'0 0.0
2016-May-25 20:33N 34°41' E 135°12'0 0.0
2016-May-25 19:33N 34°41' E 135°12'0 0.0
2016-May-25 18:33N 34°41' E 135°12'0 0.0
2016-May-25 17:33N 34°41' E 135°12'0 0.0
2016-May-25 16:33N 34°41' E 135°12'0 0.0
2016-May-25 15:33N 34°41' E 135°12'0 0.0
2016-May-25 14:33N 34°41' E 135°12'0 0.0
2016-May-25 13:33N 34°41' E 135°12'0 0.0
2016-May-25 12:33N 34°41' E 135°12'0 0.0
2016-May-25 11:33N 34°41' E 135°12'0 0.0
2016-May-25 10:33N 34°41' E 135°12'0 0.0
2016-May-25 09:33N 34°41' E 135°12'0 0.0
2016-May-25 08:33N 34°41' E 135°12'0 0.0
2016-May-25 07:33N 34°41' E 135°12'0 0.0
2016-May-25 06:33N 34°41' E 135°12'0 0.0
2016-May-25 05:33N 34°41' E 135°12'0 0.0
2016-May-25 04:33N 34°41' E 135°12'7 6.6
2016-May-25 03:33N 34°41' E 135°20'3 2.9
2016-May-25 02:32N 34°42' E 135°23'0 0.0
2016-May-25 01:33N 34°42' E 135°23'0 0.0
2016-May-25 00:33N 34°42' E 135°23'0 0.0
2016-May-24 23:33N 34°42' E 135°23'0 0.5
2016-May-24 22:33N 34°42' E 135°24'1 0.8
2016-May-24 21:32N 34°41' E 135°23'0 0.0
2016-May-24 20:33N 34°41' E 135°23'0 0.0
2016-May-24 19:33N 34°41' E 135°23'0 0.0
2016-May-24 18:33N 34°41' E 135°23'0 0.0
2016-May-24 17:33N 34°41' E 135°23'0 0.0
2016-May-24 16:33N 34°41' E 135°23'0 0.0
2016-May-24 15:33N 34°41' E 135°23'0 0.0
2016-May-24 14:33N 34°41' E 135°23'0 0.0
2016-May-24 13:33N 34°41' E 135°23'0 0.0
2016-May-24 12:33N 34°41' E 135°23'0 0.0
2016-May-24 11:33N 34°41' E 135°23'0 0.3
2016-May-24 10:33N 34°41' E 135°23'4 4.3
2016-May-24 09:33N 34°40' E 135°18'0 0.0
2016-May-24 08:32N 34°40' E 135°18'0 0.1
2016-May-24 07:33N 34°40' E 135°18'4 4.3
2016-May-24 06:33N 34°41' E 135°13'0 0.4
2016-May-24 05:33N 34°41' E 135°12'0 0.0
2016-May-24 04:33N 34°41' E 135°12'0 0.0
2016-May-24 03:33N 34°41' E 135°12'0 0.0
2016-May-24 02:33N 34°41' E 135°12'0 0.0
2016-May-24 01:33N 34°41' E 135°12'0 0.0
2016-May-24 00:33N 34°41' E 135°12'0 0.0
2016-May-23 23:33N 34°41' E 135°12'0 0.0
2016-May-23 22:33N 34°41' E 135°12'0 0.0
2016-May-23 21:33N 34°41' E 135°12'0 0.0
2016-May-23 20:33N 34°41' E 135°12'0 0.0
2016-May-23 19:33N 34°41' E 135°12'0 0.0
2016-May-23 18:33N 34°41' E 135°12'0 0.0
2016-May-23 17:33N 34°41' E 135°12'0 0.0
2016-May-23 16:33N 34°41' E 135°12'0 0.0
2016-May-23 15:33N 34°41' E 135°12'0 0.0
2016-May-23 14:33N 34°41' E 135°12'0 0.0
2016-May-23 13:33N 34°41' E 135°12'0 0.0
2016-May-23 12:33N 34°41' E 135°12'0 0.0
2016-May-23 11:33N 34°41' E 135°12'0 0.0
2016-May-23 10:33N 34°41' E 135°12'0 0.0
2016-May-23 09:33N 34°41' E 135°12'0 0.0
2016-May-23 08:33N 34°41' E 135°12'0 0.0
2016-May-23 07:33N 34°41' E 135°12'0 0.0
2016-May-23 06:33N 34°41' E 135°12'0 0.0
2016-May-23 05:33N 34°41' E 135°12'0 0.0
2016-May-23 04:33N 34°41' E 135°12'8 7.6
2016-May-23 03:33N 34°41' E 135°21'2 2.2
2016-May-23 02:33N 34°42' E 135°23'0 0.0
2016-May-23 01:33N 34°42' E 135°23'0 0.0
2016-May-23 00:33N 34°42' E 135°23'0 0.0
2016-May-22 23:30N 34°42' E 135°23'0 0.5
2016-May-22 22:33N 34°42' E 135°24'1 0.8
2016-May-22 21:33N 34°41' E 135°23'0 0.0
2016-May-22 20:33N 34°41' E 135°23'0 0.0
2016-May-22 19:33N 34°41' E 135°23'0 0.0
2016-May-22 18:33N 34°41' E 135°23'0 0.1
2016-May-22 17:33N 34°41' E 135°23'3 3.5
2016-May-22 16:33N 34°39' E 135°20'1010.0
2016-May-22 15:33N 34°30' E 135°14'1010.0
2016-May-22 14:33N 34°22' E 135°07'10 9.7
2016-May-22 13:31N 34°13' E 135°02'241 8.0
2016-May-21 07:32N 35°13' E 139°46'9 9.6
2016-May-21 06:33N 35°21' E 139°42'9 9.5
2016-May-21 05:33N 35°30' E 139°48'3 2.6
2016-May-21 04:33N 35°31' E 139°45'0 0.0
2016-May-21 03:33N 35°31' E 139°45'0 0.0
2016-May-21 02:33N 35°31' E 139°45'0 0.0
2016-May-21 01:33N 35°31' E 139°45'0 0.0
2016-May-21 00:33N 35°31' E 139°45'0 0.0
2016-May-20 23:33N 35°31' E 139°45'0 0.0
2016-May-20 22:33N 35°31' E 139°45'0 0.0
2016-May-20 21:33N 35°31' E 139°45'0 0.0
2016-May-20 20:33N 35°31' E 139°45'0 0.0
2016-May-20 19:33N 35°31' E 139°45'0 0.0
2016-May-20 18:33N 35°31' E 139°45'0 0.0
2016-May-20 17:33N 35°31' E 139°45'0 0.0
2016-May-20 16:33N 35°31' E 139°45'0 0.0
2016-May-20 15:33N 35°31' E 139°45'0 0.0
2016-May-20 14:33N 35°31' E 139°45'0 0.0
2016-May-20 13:33N 35°31' E 139°45'0 0.0
2016-May-20 12:33N 35°31' E 139°45'0 0.0
2016-May-20 11:33N 35°31' E 139°45'0 0.0
2016-May-20 10:33N 35°31' E 139°45'0 0.0
2016-May-20 09:33N 35°31' E 139°45'0 0.0
2016-May-20 08:33N 35°31' E 139°45'0 0.0
2016-May-20 07:33N 35°31' E 139°45'0 0.0
2016-May-20 06:33N 35°31' E 139°45'0 0.0
2016-May-20 05:33N 35°31' E 139°45'0 0.0
2016-May-20 04:33N 35°31' E 139°45'0 0.0
2016-May-20 03:33N 35°31' E 139°45'0 0.0
2016-May-20 02:33N 35°31' E 139°45'0 0.0
2016-May-20 01:33N 35°31' E 139°45'0 0.0
2016-May-20 00:33N 35°31' E 139°45'0 0.0
2016-May-19 23:33N 35°31' E 139°45'0 0.0
2016-May-19 22:33N 35°31' E 139°45'0 0.0
2016-May-19 21:33N 35°31' E 139°45'0 0.0
2016-May-19 20:33N 35°31' E 139°45'0 0.0
2016-May-19 19:33N 35°31' E 139°45'0 0.0
2016-May-19 18:33N 35°31' E 139°45'0 0.0
2016-May-19 17:33N 35°31' E 139°45'0 0.0
2016-May-19 16:33N 35°31' E 139°45'0 0.0
2016-May-19 15:33N 35°31' E 139°45'0 0.0
2016-May-19 14:34N 35°31' E 139°45'0 0.0
2016-May-19 13:33N 35°31' E 139°45'0 0.0
2016-May-19 12:33N 35°31' E 139°45'0 0.0
2016-May-19 11:33N 35°31' E 139°45'0 0.0
2016-May-19 10:33N 35°31' E 139°45'0 0.0
2016-May-19 09:33N 35°31' E 139°45'0 0.0
2016-May-19 08:33N 35°31' E 139°45'0 0.0
2016-May-19 07:33N 35°31' E 139°45'0 0.0
2016-May-19 06:33N 35°31' E 139°45'0 0.0
2016-May-19 05:34N 35°31' E 139°45'8 7.7
2016-May-19 04:33N 35°23' E 139°46'9 9.4
2016-May-19 03:33N 35°14' E 139°47'  
Track history (hours):
 
Tides and Currents Weather Stations Pressure Air Temp Water Temp Dewpoint Dewpoint Depression Visibility Wind Speed Wind Dir Waves Ship Positions

Kaisei Maru

Last reported at 2016-May-29 03:33 UTC. Time now 2016-May-29 03:52 UTC.
Position N 34°41' E 135°12'.

Length 52 m; draft 3.8 m.

Type: Tanker. MMSI: 431001837.

Date/timePositionNaut miles runAvg speedWind from/ knotsBaromVisibWave heightAir tempDewpointWater temp
2016-May-29 03:33N 34°41' E 135°12'0 0.0
2016-May-29 02:33N 34°41' E 135°12'0 0.0
2016-May-29 01:33N 34°41' E 135°12'0 0.0
2016-May-29 00:33N 34°41' E 135°12'0 0.0
2016-May-28 23:33N 34°41' E 135°12'0 0.0
2016-May-28 22:33N 34°41' E 135°12'0 0.0
2016-May-28 21:33N 34°41' E 135°12'0 0.0
2016-May-28 20:33N 34°41' E 135°12'0 0.0
2016-May-28 19:33N 34°41' E 135°12'0 0.0
2016-May-28 18:33N 34°41' E 135°12'0 0.0
2016-May-28 17:33N 34°41' E 135°12'0 0.0
2016-May-28 16:33N 34°41' E 135°12'0 0.0
2016-May-28 15:33N 34°41' E 135°12'0 0.0
2016-May-28 14:33N 34°41' E 135°12'0 0.0
2016-May-28 13:33N 34°41' E 135°12'0 0.0
2016-May-28 12:33N 34°41' E 135°12'0 0.0
2016-May-28 11:33N 34°41' E 135°12'0 0.0
2016-May-28 10:33N 34°41' E 135°12'0 0.0
2016-May-28 09:33N 34°41' E 135°12'0 0.0
2016-May-28 08:33N 34°41' E 135°12'4 3.8
2016-May-28 07:33N 34°39' E 135°16'1010.4
2016-May-28 06:33N 34°29' E 135°20'3 3.2
2016-May-28 05:32N 34°26' E 135°19'0 0.1
2016-May-28 03:16N 34°26' E 135°19'1 1.3
2016-May-28 02:33N 34°27' E 135°19'0 0.0
2016-May-28 01:33N 34°27' E 135°19'0 0.0
2016-May-28 00:31N 34°27' E 135°19'7 7.5
2016-May-27 23:33N 34°34' E 135°17'8 8.2
2016-May-27 22:33N 34°41' E 135°13'0 0.4
2016-May-27 21:33N 34°41' E 135°12'0 0.0
2016-May-27 20:33N 34°41' E 135°12'0 0.0
2016-May-27 19:33N 34°41' E 135°12'0 0.0
2016-May-27 18:33N 34°41' E 135°12'0 0.0
2016-May-27 17:33N 34°41' E 135°12'0 0.0
2016-May-27 16:33N 34°41' E 135°12'0 0.0
2016-May-27 15:33N 34°41' E 135°12'0 0.0
2016-May-27 14:33N 34°41' E 135°12'0 0.0
2016-May-27 13:33N 34°41' E 135°12'0 0.0
2016-May-27 12:33N 34°41' E 135°12'0 0.0
2016-May-27 11:33N 34°41' E 135°12'0 0.0
2016-May-27 10:33N 34°41' E 135°12'0 0.0
2016-May-27 09:33N 34°41' E 135°12'0 0.0
2016-May-27 08:33N 34°41' E 135°12'0 0.0
2016-May-27 07:33N 34°41' E 135°12'9 8.7
2016-May-27 06:33N 34°34' E 135°18'8 3.1
2016-May-27 04:03N 34°26' E 135°19'4 6.3
2016-May-27 03:27N 34°30' E 135°18'910.2
2016-May-27 02:33N 34°38' E 135°16'4 4.2
2016-May-27 01:33N 34°41' E 135°12'0 0.0
2016-May-27 00:33N 34°41' E 135°12'0 0.0
2016-May-26 23:33N 34°41' E 135°12'0 0.0
2016-May-26 22:33N 34°41' E 135°12'0 0.0
2016-May-26 21:33N 34°41' E 135°12'0 0.0
2016-May-26 20:33N 34°41' E 135°12'0 0.0
2016-May-26 19:33N 34°41' E 135°12'0 0.0
2016-May-26 18:33N 34°41' E 135°12'0 0.0
2016-May-26 17:33N 34°41' E 135°12'0 0.0
2016-May-26 16:33N 34°41' E 135°12'0 0.0
2016-May-26 15:33N 34°41' E 135°12'0 0.0
2016-May-26 14:33N 34°41' E 135°12'0 0.0
2016-May-26 13:33N 34°41' E 135°12'0 0.0
2016-May-26 12:33N 34°41' E 135°12'0 0.0
2016-May-26 11:33N 34°41' E 135°12'0 0.0
2016-May-26 10:33N 34°41' E 135°12'0 0.0
2016-May-26 09:33N 34°41' E 135°12'0 0.0
2016-May-26 08:33N 34°41' E 135°12'0 0.0
2016-May-26 07:33N 34°41' E 135°12'0 0.0
2016-May-26 06:33N 34°41' E 135°12'0 0.0
2016-May-26 05:33N 34°41' E 135°12'0 0.0
2016-May-26 04:33N 34°41' E 135°12'0 0.0
2016-May-26 03:33N 34°41' E 135°12'0 0.0
2016-May-26 02:33N 34°41' E 135°12'0 0.0
2016-May-26 01:33N 34°41' E 135°12'0 0.0
2016-May-26 00:33N 34°41' E 135°12'0 0.0
2016-May-25 23:33N 34°41' E 135°12'0 0.0
2016-May-25 22:33N 34°41' E 135°12'0 0.0
2016-May-25 21:33N 34°41' E 135°12'0 0.0
2016-May-25 20:33N 34°41' E 135°12'0 0.0
2016-May-25 19:33N 34°41' E 135°12'0 0.0
2016-May-25 18:33N 34°41' E 135°12'0 0.0
2016-May-25 17:33N 34°41' E 135°12'0 0.0
2016-May-25 16:33N 34°41' E 135°12'0 0.0
2016-May-25 15:33N 34°41' E 135°12'0 0.0
2016-May-25 14:33N 34°41' E 135°12'0 0.0
2016-May-25 13:33N 34°41' E 135°12'0 0.0
2016-May-25 12:33N 34°41' E 135°12'0 0.0
2016-May-25 11:33N 34°41' E 135°12'0 0.0
2016-May-25 10:33N 34°41' E 135°12'0 0.0
2016-May-25 09:33N 34°41' E 135°12'0 0.0
2016-May-25 08:33N 34°41' E 135°12'0 0.0
2016-May-25 07:33N 34°41' E 135°12'0 0.0
2016-May-25 06:33N 34°41' E 135°12'0 0.0
2016-May-25 05:33N 34°41' E 135°12'0 0.0
2016-May-25 04:33N 34°41' E 135°12'7 6.6
2016-May-25 03:33N 34°41' E 135°20'3 2.9
2016-May-25 02:32N 34°42' E 135°23'0 0.0
2016-May-25 01:33N 34°42' E 135°23'0 0.0
2016-May-25 00:33N 34°42' E 135°23'0 0.0
2016-May-24 23:33N 34°42' E 135°23'0 0.5
2016-May-24 22:33N 34°42' E 135°24'1 0.8
2016-May-24 21:32N 34°41' E 135°23'0 0.0
2016-May-24 20:33N 34°41' E 135°23'0 0.0
2016-May-24 19:33N 34°41' E 135°23'0 0.0
2016-May-24 18:33N 34°41' E 135°23'0 0.0
2016-May-24 17:33N 34°41' E 135°23'0 0.0
2016-May-24 16:33N 34°41' E 135°23'0 0.0
2016-May-24 15:33N 34°41' E 135°23'0 0.0
2016-May-24 14:33N 34°41' E 135°23'0 0.0
2016-May-24 13:33N 34°41' E 135°23'0 0.0
2016-May-24 12:33N 34°41' E 135°23'0 0.0
2016-May-24 11:33N 34°41' E 135°23'0 0.3
2016-May-24 10:33N 34°41' E 135°23'4 4.3
2016-May-24 09:33N 34°40' E 135°18'0 0.0
2016-May-24 08:32N 34°40' E 135°18'0 0.1
2016-May-24 07:33N 34°40' E 135°18'4 4.3
2016-May-24 06:33N 34°41' E 135°13'0 0.4
2016-May-24 05:33N 34°41' E 135°12'0 0.0
2016-May-24 04:33N 34°41' E 135°12'0 0.0
2016-May-24 03:33N 34°41' E 135°12'0 0.0
2016-May-24 02:33N 34°41' E 135°12'0 0.0
2016-May-24 01:33N 34°41' E 135°12'0 0.0
2016-May-24 00:33N 34°41' E 135°12'0 0.0
2016-May-23 23:33N 34°41' E 135°12'0 0.0
2016-May-23 22:33N 34°41' E 135°12'0 0.0
2016-May-23 21:33N 34°41' E 135°12'0 0.0
2016-May-23 20:33N 34°41' E 135°12'0 0.0
2016-May-23 19:33N 34°41' E 135°12'0 0.0
2016-May-23 18:33N 34°41' E 135°12'0 0.0
2016-May-23 17:33N 34°41' E 135°12'0 0.0
2016-May-23 16:33N 34°41' E 135°12'0 0.0
2016-May-23 15:33N 34°41' E 135°12'0 0.0
2016-May-23 14:33N 34°41' E 135°12'0 0.0
2016-May-23 13:33N 34°41' E 135°12'0 0.0
2016-May-23 12:33N 34°41' E 135°12'0 0.0
2016-May-23 11:33N 34°41' E 135°12'0 0.0
2016-May-23 10:33N 34°41' E 135°12'0 0.0
2016-May-23 09:33N 34°41' E 135°12'0 0.0
2016-May-23 08:33N 34°41' E 135°12'0 0.0
2016-May-23 07:33N 34°41' E 135°12'0 0.0
2016-May-23 06:33N 34°41' E 135°12'0 0.0
2016-May-23 05:33N 34°41' E 135°12'0 0.0
2016-May-23 04:33N 34°41' E 135°12'8 7.6
2016-May-23 03:33N 34°41' E 135°21'2 2.2
2016-May-23 02:33N 34°42' E 135°23'0 0.0
2016-May-23 01:33N 34°42' E 135°23'0 0.0
2016-May-23 00:33N 34°42' E 135°23'0 0.0
2016-May-22 23:30N 34°42' E 135°23'0 0.5
2016-May-22 22:33N 34°42' E 135°24'1 0.8
2016-May-22 21:33N 34°41' E 135°23'0 0.0
2016-May-22 20:33N 34°41' E 135°23'0 0.0
2016-May-22 19:33N 34°41' E 135°23'0 0.0
2016-May-22 18:33N 34°41' E 135°23'0 0.1
2016-May-22 17:33N 34°41' E 135°23'3 3.5
2016-May-22 16:33N 34°39' E 135°20'1010.0
2016-May-22 15:33N 34°30' E 135°14'1010.0
2016-May-22 14:33N 34°22' E 135°07'10 9.7
2016-May-22 13:31N 34°13' E 135°02'241 8.0
2016-May-21 07:32N 35°13' E 139°46'9 9.6
2016-May-21 06:33N 35°21' E 139°42'9 9.5
2016-May-21 05:33N 35°30' E 139°48'3 2.6
2016-May-21 04:33N 35°31' E 139°45'0 0.0
2016-May-21 03:33N 35°31' E 139°45'0 0.0
2016-May-21 02:33N 35°31' E 139°45'0 0.0
2016-May-21 01:33N 35°31' E 139°45'0 0.0
2016-May-21 00:33N 35°31' E 139°45'0 0.0
2016-May-20 23:33N 35°31' E 139°45'0 0.0
2016-May-20 22:33N 35°31' E 139°45'0 0.0
2016-May-20 21:33N 35°31' E 139°45'0 0.0
2016-May-20 20:33N 35°31' E 139°45'0 0.0
2016-May-20 19:33N 35°31' E 139°45'0 0.0
2016-May-20 18:33N 35°31' E 139°45'0 0.0
2016-May-20 17:33N 35°31' E 139°45'0 0.0
2016-May-20 16:33N 35°31' E 139°45'0 0.0
2016-May-20 15:33N 35°31' E 139°45'0 0.0
2016-May-20 14:33N 35°31' E 139°45'0 0.0
2016-May-20 13:33N 35°31' E 139°45'0 0.0
2016-May-20 12:33N 35°31' E 139°45'0 0.0
2016-May-20 11:33N 35°31' E 139°45'0 0.0
2016-May-20 10:33N 35°31' E 139°45'0 0.0
2016-May-20 09:33N 35°31' E 139°45'0 0.0
2016-May-20 08:33N 35°31' E 139°45'0 0.0
2016-May-20 07:33N 35°31' E 139°45'0 0.0
2016-May-20 06:33N 35°31' E 139°45'0 0.0
2016-May-20 05:33N 35°31' E 139°45'0 0.0
2016-May-20 04:33N 35°31' E 139°45'0 0.0
2016-May-20 03:33N 35°31' E 139°45'0 0.0
2016-May-20 02:33N 35°31' E 139°45'0 0.0
2016-May-20 01:33N 35°31' E 139°45'0 0.0
2016-May-20 00:33N 35°31' E 139°45'0 0.0
2016-May-19 23:33N 35°31' E 139°45'0 0.0
2016-May-19 22:33N 35°31' E 139°45'0 0.0
2016-May-19 21:33N 35°31' E 139°45'0 0.0
2016-May-19 20:33N 35°31' E 139°45'0 0.0
2016-May-19 19:33N 35°31' E 139°45'0 0.0
2016-May-19 18:33N 35°31' E 139°45'0 0.0
2016-May-19 17:33N 35°31' E 139°45'0 0.0
2016-May-19 16:33N 35°31' E 139°45'0 0.0
2016-May-19 15:33N 35°31' E 139°45'0 0.0
2016-May-19 14:34N 35°31' E 139°45'0 0.0
2016-May-19 13:33N 35°31' E 139°45'0 0.0
2016-May-19 12:33N 35°31' E 139°45'0 0.0
2016-May-19 11:33N 35°31' E 139°45'0 0.0
2016-May-19 10:33N 35°31' E 139°45'0 0.0
2016-May-19 09:33N 35°31' E 139°45'0 0.0
2016-May-19 08:33N 35°31' E 139°45'0 0.0
2016-May-19 07:33N 35°31' E 139°45'0 0.0
2016-May-19 06:33N 35°31' E 139°45'0 0.0
2016-May-19 05:34N 35°31' E 139°45'8 7.7
2016-May-19 04:33N 35°23' E 139°46'9 9.4
2016-May-19 03:33N 35°14' E 139°47'  

Dump ship's entire track history